sensor_id;sensor_type;location;lat;lon;timestamp;pressure;altitude;pressure_sealevel;temperature;humidity
9059;BME280;4564;42.034;25.834;2024-01-30T00:02:18;102429.47;;;0.86;87.48
9059;BME280;4564;42.034;25.834;2024-01-30T00:04:44;102428.44;;;0.89;87.86
9059;BME280;4564;42.034;25.834;2024-01-30T00:07:11;102432.91;;;0.88;87.23
9059;BME280;4564;42.034;25.834;2024-01-30T00:09:39;102427.97;;;0.98;87.09
9059;BME280;4564;42.034;25.834;2024-01-30T00:12:06;102423.38;;;1.01;86.35
9059;BME280;4564;42.034;25.834;2024-01-30T00:14:32;102427.63;;;1.05;86.46
9059;BME280;4564;42.034;25.834;2024-01-30T00:16:59;102420.25;;;1.10;87.10
9059;BME280;4564;42.034;25.834;2024-01-30T00:19:26;102418.75;;;1.05;86.12
9059;BME280;4564;42.034;25.834;2024-01-30T00:21:52;102423.38;;;1.01;87.64
9059;BME280;4564;42.034;25.834;2024-01-30T00:24:19;102421.47;;;1.03;87.31
9059;BME280;4564;42.034;25.834;2024-01-30T00:26:47;102426.63;;;1.08;87.05
9059;BME280;4564;42.034;25.834;2024-01-30T00:29:13;102422.28;;;1.05;87.73
9059;BME280;4564;42.034;25.834;2024-01-30T00:31:44;102421.91;;;1.13;86.96
9059;BME280;4564;42.034;25.834;2024-01-30T00:34:11;102424.25;;;1.02;84.89
9059;BME280;4564;42.034;25.834;2024-01-30T00:36:37;102427.28;;;0.94;85.74
9059;BME280;4564;42.034;25.834;2024-01-30T00:39:04;102424.31;;;1.00;86.66
9059;BME280;4564;42.034;25.834;2024-01-30T00:41:34;102416.28;;;1.00;86.60
9059;BME280;4564;42.034;25.834;2024-01-30T00:44:02;102425.53;;;0.93;86.22
9059;BME280;4564;42.034;25.834;2024-01-30T00:46:28;102427.28;;;0.94;87.16
9059;BME280;4564;42.034;25.834;2024-01-30T00:48:55;102425.25;;;0.99;85.49
9059;BME280;4564;42.034;25.834;2024-01-30T00:51:21;102428.56;;;1.04;85.42
9059;BME280;4564;42.034;25.834;2024-01-30T00:53:48;102430.00;;;1.11;85.65
9059;BME280;4564;42.034;25.834;2024-01-30T00:56:15;102428.13;;;1.13;84.85
9059;BME280;4564;42.034;25.834;2024-01-30T00:58:43;102420.75;;;1.18;84.85
9059;BME280;4564;42.034;25.834;2024-01-30T01:01:11;102429.56;;;1.20;85.40
9059;BME280;4564;42.034;25.834;2024-01-30T01:03:38;102425.88;;;1.23;83.50
9059;BME280;4564;42.034;25.834;2024-01-30T01:06:06;102427.16;;;1.33;84.66
9059;BME280;4564;42.034;25.834;2024-01-30T01:08:32;102423.44;;;1.36;84.19
9059;BME280;4564;42.034;25.834;2024-01-30T01:10:59;102418.91;;;1.38;85.10
9059;BME280;4564;42.034;25.834;2024-01-30T01:13:25;102407.66;;;1.48;84.22
9059;BME280;4564;42.034;25.834;2024-01-30T01:15:52;102416.25;;;1.55;84.60
9059;BME280;4564;42.034;25.834;2024-01-30T01:18:20;102415.16;;;1.59;84.18
9059;BME280;4564;42.034;25.834;2024-01-30T01:20:47;102410.44;;;1.64;84.03
9059;BME280;4564;42.034;25.834;2024-01-30T01:23:13;102413.66;;;1.71;83.77
9059;BME280;4564;42.034;25.834;2024-01-30T01:25:40;102405.41;;;1.75;83.18
9059;BME280;4564;42.034;25.834;2024-01-30T01:28:06;102407.13;;;1.76;82.83
9059;BME280;4564;42.034;25.834;2024-01-30T01:30:33;102403.66;;;1.74;82.88
9059;BME280;4564;42.034;25.834;2024-01-30T01:32:59;102404.13;;;1.65;83.32
9059;BME280;4564;42.034;25.834;2024-01-30T01:35:28;102400.66;;;1.63;83.65
9059;BME280;4564;42.034;25.834;2024-01-30T01:37:55;102397.84;;;1.66;82.51
9059;BME280;4564;42.034;25.834;2024-01-30T01:40:23;102398.97;;;1.62;83.96
9059;BME280;4564;42.034;25.834;2024-01-30T01:42:50;102399.03;;;1.60;83.31
9059;BME280;4564;42.034;25.834;2024-01-30T01:45:17;102392.19;;;1.55;84.36
9059;BME280;4564;42.034;25.834;2024-01-30T01:47:44;102392.88;;;1.58;84.46
9059;BME280;4564;42.034;25.834;2024-01-30T01:50:12;102390.06;;;1.61;84.45
9059;BME280;4564;42.034;25.834;2024-01-30T01:52:40;102393.44;;;1.65;83.81
9059;BME280;4564;42.034;25.834;2024-01-30T01:55:07;102381.78;;;1.66;83.43
9059;BME280;4564;42.034;25.834;2024-01-30T01:57:34;102390.44;;;1.71;82.91
9059;BME280;4564;42.034;25.834;2024-01-30T02:00:01;102388.53;;;1.73;82.48
9059;BME280;4564;42.034;25.834;2024-01-30T02:02:28;102386.34;;;1.64;83.83
9059;BME280;4564;42.034;25.834;2024-01-30T02:04:56;102389.25;;;1.59;83.88
9059;BME280;4564;42.034;25.834;2024-01-30T02:07:23;102387.03;;;1.67;83.98
9059;BME280;4564;42.034;25.834;2024-01-30T02:09:51;102379.69;;;1.73;83.95
9059;BME280;4564;42.034;25.834;2024-01-30T02:12:18;102395.00;;;1.69;82.56
9059;BME280;4564;42.034;25.834;2024-01-30T02:14:45;102391.88;;;1.78;82.77
9059;BME280;4564;42.034;25.834;2024-01-30T02:17:11;102384.84;;;1.76;82.13
9059;BME280;4564;42.034;25.834;2024-01-30T02:19:38;102383.66;;;1.81;83.09
9059;BME280;4564;42.034;25.834;2024-01-30T02:22:06;102386.03;;;1.87;83.43
9059;BME280;4564;42.034;25.834;2024-01-30T02:24:34;102382.41;;;1.88;82.64
9059;BME280;4564;42.034;25.834;2024-01-30T02:27:00;102382.25;;;1.91;82.57
9059;BME280;4564;42.034;25.834;2024-01-30T02:29:27;102376.97;;;1.90;82.10
9059;BME280;4564;42.034;25.834;2024-01-30T02:31:53;102384.47;;;1.83;82.40
9059;BME280;4564;42.034;25.834;2024-01-30T02:34:20;102379.94;;;1.84;82.05
9059;BME280;4564;42.034;25.834;2024-01-30T02:36:46;102379.25;;;1.80;82.21
9059;BME280;4564;42.034;25.834;2024-01-30T02:39:14;102371.72;;;1.88;83.26
9059;BME280;4564;42.034;25.834;2024-01-30T02:41:41;102373.41;;;1.89;81.93
9059;BME280;4564;42.034;25.834;2024-01-30T02:44:07;102365.25;;;1.92;82.48
9059;BME280;4564;42.034;25.834;2024-01-30T02:46:34;102365.88;;;1.97;82.60
9059;BME280;4564;42.034;25.834;2024-01-30T02:49:01;102372.16;;;1.96;82.80
9059;BME280;4564;42.034;25.834;2024-01-30T02:51:27;102364.75;;;2.01;82.46
9059;BME280;4564;42.034;25.834;2024-01-30T02:53:54;102361.91;;;2.04;82.49
9059;BME280;4564;42.034;25.834;2024-01-30T02:56:22;102357.84;;;1.97;81.84
9059;BME280;4564;42.034;25.834;2024-01-30T02:58:48;102354.84;;;2.03;80.73
9059;BME280;4564;42.034;25.834;2024-01-30T03:01:15;102358.28;;;2.05;80.79
9059;BME280;4564;42.034;25.834;2024-01-30T03:03:41;102354.41;;;2.11;80.49
9059;BME280;4564;42.034;25.834;2024-01-30T03:06:25;102353.47;;;2.12;80.51
9059;BME280;4564;42.034;25.834;2024-01-30T03:08:52;102359.69;;;2.13;80.59
9059;BME280;4564;42.034;25.834;2024-01-30T03:11:18;102355.66;;;2.21;81.49
9059;BME280;4564;42.034;25.834;2024-01-30T03:13:46;102354.94;;;2.18;80.33
9059;BME280;4564;42.034;25.834;2024-01-30T03:16:13;102355.13;;;2.15;80.12
9059;BME280;4564;42.034;25.834;2024-01-30T03:18:39;102354.19;;;2.16;80.25
9059;BME280;4564;42.034;25.834;2024-01-30T03:21:06;102361.34;;;2.15;80.41
9059;BME280;4564;42.034;25.834;2024-01-30T03:23:32;102346.38;;;2.11;80.76
9059;BME280;4564;42.034;25.834;2024-01-30T03:25:59;102349.44;;;2.21;80.54
9059;BME280;4564;42.034;25.834;2024-01-30T03:28:25;102352.19;;;2.19;80.47
9059;BME280;4564;42.034;25.834;2024-01-30T03:30:53;102343.91;;;2.24;80.56
9059;BME280;4564;42.034;25.834;2024-01-30T03:33:20;102341.69;;;2.32;80.88
9059;BME280;4564;42.034;25.834;2024-01-30T03:35:47;102342.53;;;2.32;80.12
9059;BME280;4564;42.034;25.834;2024-01-30T03:38:13;102343.56;;;2.30;80.80
9059;BME280;4564;42.034;25.834;2024-01-30T03:40:40;102345.63;;;2.25;81.21
9059;BME280;4564;42.034;25.834;2024-01-30T03:43:06;102343.75;;;2.27;80.71
9059;BME280;4564;42.034;25.834;2024-01-30T03:45:33;102342.72;;;2.29;80.64
9059;BME280;4564;42.034;25.834;2024-01-30T03:48:01;102335.00;;;2.23;81.46
9059;BME280;4564;42.034;25.834;2024-01-30T03:50:28;102338.22;;;2.30;81.89
9059;BME280;4564;42.034;25.834;2024-01-30T03:52:54;102332.53;;;2.36;80.79
9059;BME280;4564;42.034;25.834;2024-01-30T03:55:21;102339.22;;;2.27;80.88
9059;BME280;4564;42.034;25.834;2024-01-30T03:57:47;102346.44;;;2.27;81.43
9059;BME280;4564;42.034;25.834;2024-01-30T04:00:14;102350.47;;;2.34;80.95
9059;BME280;4564;42.034;25.834;2024-01-30T04:02:41;102341.31;;;2.38;81.32
9059;BME280;4564;42.034;25.834;2024-01-30T04:05:09;102332.34;;;2.39;80.89
9059;BME280;4564;42.034;25.834;2024-01-30T04:07:35;102329.50;;;2.42;80.79
9059;BME280;4564;42.034;25.834;2024-01-30T04:10:02;102320.09;;;2.50;79.88
9059;BME280;4564;42.034;25.834;2024-01-30T04:12:30;102329.94;;;2.50;79.81
9059;BME280;4564;42.034;25.834;2024-01-30T04:14:57;102326.84;;;2.42;80.38
9059;BME280;4564;42.034;25.834;2024-01-30T04:17:24;102330.47;;;2.41;80.84
9059;BME280;4564;42.034;25.834;2024-01-30T04:19:50;102335.88;;;2.39;80.92
9059;BME280;4564;42.034;25.834;2024-01-30T04:22:18;102328.56;;;2.43;81.23
9059;BME280;4564;42.034;25.834;2024-01-30T04:24:44;102328.56;;;2.43;80.97
9059;BME280;4564;42.034;25.834;2024-01-30T04:27:11;102328.38;;;2.46;80.62
9059;BME280;4564;42.034;25.834;2024-01-30T04:29:38;102335.47;;;2.47;80.11
9059;BME280;4564;42.034;25.834;2024-01-30T04:32:04;102335.56;;;2.45;81.23
9059;BME280;4564;42.034;25.834;2024-01-30T04:34:31;102341.09;;;2.42;80.91
9059;BME280;4564;42.034;25.834;2024-01-30T04:36:58;102342.13;;;2.40;80.42
9059;BME280;4564;42.034;25.834;2024-01-30T04:39:26;102338.22;;;2.45;80.10
9059;BME280;4564;42.034;25.834;2024-01-30T04:41:52;102343.66;;;2.44;80.35
9059;BME280;4564;42.034;25.834;2024-01-30T04:44:19;102347.13;;;2.46;79.68
9059;BME280;4564;42.034;25.834;2024-01-30T04:46:45;102341.72;;;2.47;79.82
9059;BME280;4564;42.034;25.834;2024-01-30T04:49:12;102350.94;;;2.42;79.72
9059;BME280;4564;42.034;25.834;2024-01-30T04:51:38;102342.03;;;2.41;79.98
9059;BME280;4564;42.034;25.834;2024-01-30T04:54:05;102349.81;;;2.46;79.83
9059;BME280;4564;42.034;25.834;2024-01-30T04:56:33;102351.72;;;2.44;80.10
9059;BME280;4564;42.034;25.834;2024-01-30T04:59:01;102348.69;;;2.50;79.84
9059;BME280;4564;42.034;25.834;2024-01-30T05:01:28;102346.63;;;2.55;78.54
9059;BME280;4564;42.034;25.834;2024-01-30T05:03:55;102348.03;;;2.62;78.77
9059;BME280;4564;42.034;25.834;2024-01-30T05:06:25;102353.44;;;2.61;78.68
9059;BME280;4564;42.034;25.834;2024-01-30T05:08:51;102352.69;;;2.59;79.55
9059;BME280;4564;42.034;25.834;2024-01-30T05:11:18;102352.94;;;2.54;80.19
9059;BME280;4564;42.034;25.834;2024-01-30T05:13:46;102345.88;;;2.53;79.51
9059;BME280;4564;42.034;25.834;2024-01-30T05:16:12;102345.69;;;2.56;79.23
9059;BME280;4564;42.034;25.834;2024-01-30T05:18:39;102336.16;;;2.50;79.25
9059;BME280;4564;42.034;25.834;2024-01-30T05:21:05;102335.16;;;2.53;79.74
9059;BME280;4564;42.034;25.834;2024-01-30T05:23:32;102316.28;;;2.54;79.24
9059;BME280;4564;42.034;25.834;2024-01-30T05:25:59;102325.09;;;2.57;79.71
9059;BME280;4564;42.034;25.834;2024-01-30T05:28:26;102327.88;;;2.55;79.20
9059;BME280;4564;42.034;25.834;2024-01-30T05:30:54;102337.72;;;2.54;79.92
9059;BME280;4564;42.034;25.834;2024-01-30T05:33:20;102343.19;;;2.53;80.32
9059;BME280;4564;42.034;25.834;2024-01-30T05:35:47;102340.31;;;2.56;80.13
9059;BME280;4564;42.034;25.834;2024-01-30T05:38:14;102344.13;;;2.52;80.20
9059;BME280;4564;42.034;25.834;2024-01-30T05:40:41;102348.63;;;2.51;79.22
9059;BME280;4564;42.034;25.834;2024-01-30T05:43:08;102350.69;;;2.46;79.78
9059;BME280;4564;42.034;25.834;2024-01-30T05:45:34;102353.91;;;2.53;80.10
9059;BME280;4564;42.034;25.834;2024-01-30T05:48:03;102359.06;;;2.56;79.85
9059;BME280;4564;42.034;25.834;2024-01-30T05:50:29;102367.13;;;2.56;80.09
9059;BME280;4564;42.034;25.834;2024-01-30T05:52:56;102367.03;;;2.58;80.06
9059;BME280;4564;42.034;25.834;2024-01-30T05:55:23;102384.94;;;2.57;79.94
9059;BME280;4564;42.034;25.834;2024-01-30T05:57:49;102369.00;;;2.54;81.16
9059;BME280;4564;42.034;25.834;2024-01-30T06:00:17;102366.25;;;2.56;81.59
9059;BME280;4564;42.034;25.834;2024-01-30T06:02:44;102370.41;;;2.61;81.68
9059;BME280;4564;42.034;25.834;2024-01-30T06:05:12;102359.69;;;2.61;82.17
9059;BME280;4564;42.034;25.834;2024-01-30T06:07:38;102362.97;;;2.66;81.95
9059;BME280;4564;42.034;25.834;2024-01-30T06:10:05;102370.25;;;2.64;81.99
9059;BME280;4564;42.034;25.834;2024-01-30T06:12:34;102363.69;;;2.70;81.81
9059;BME280;4564;42.034;25.834;2024-01-30T06:15:00;102368.31;;;2.66;82.43
9059;BME280;4564;42.034;25.834;2024-01-30T06:17:27;102368.19;;;2.69;82.31
9059;BME280;4564;42.034;25.834;2024-01-30T06:19:54;102380.59;;;2.70;81.38
9059;BME280;4564;42.034;25.834;2024-01-30T06:22:22;102368.19;;;2.69;81.52
9059;BME280;4564;42.034;25.834;2024-01-30T06:24:48;102369.72;;;2.73;81.52
9059;BME280;4564;42.034;25.834;2024-01-30T06:27:15;102369.53;;;2.76;79.96
9059;BME280;4564;42.034;25.834;2024-01-30T06:29:42;102376.81;;;2.74;80.57
9059;BME280;4564;42.034;25.834;2024-01-30T06:32:09;102376.63;;;2.77;80.91
9059;BME280;4564;42.034;25.834;2024-01-30T06:34:36;102382.00;;;2.77;80.97
9059;BME280;4564;42.034;25.834;2024-01-30T06:37:04;102384.75;;;2.76;80.53
9059;BME280;4564;42.034;25.834;2024-01-30T06:39:32;102376.81;;;2.74;81.64
9059;BME280;4564;42.034;25.834;2024-01-30T06:41:58;102379.16;;;2.80;81.58
9059;BME280;4564;42.034;25.834;2024-01-30T06:44:25;102381.66;;;2.83;81.79
9059;BME280;4564;42.034;25.834;2024-01-30T06:46:52;102388.91;;;2.81;82.20
9059;BME280;4564;42.034;25.834;2024-01-30T06:49:18;102393.19;;;2.85;81.84
9059;BME280;4564;42.034;25.834;2024-01-30T06:51:47;102390.91;;;2.93;82.08
9059;BME280;4564;42.034;25.834;2024-01-30T06:54:13;102401.81;;;2.90;81.55
9059;BME280;4564;42.034;25.834;2024-01-30T06:56:42;102404.75;;;2.86;80.91
9059;BME280;4564;42.034;25.834;2024-01-30T06:59:08;102396.47;;;2.90;80.29
9059;BME280;4564;42.034;25.834;2024-01-30T07:01:35;102402.69;;;2.91;80.39
9059;BME280;4564;42.034;25.834;2024-01-30T07:04:01;102407.94;;;2.92;80.89
9059;BME280;4564;42.034;25.834;2024-01-30T07:06:28;102401.47;;;2.97;79.58
9059;BME280;4564;42.034;25.834;2024-01-30T07:08:54;102404.06;;;2.98;79.14
9059;BME280;4564;42.034;25.834;2024-01-30T07:11:21;102405.25;;;2.92;79.20
9059;BME280;4564;42.034;25.834;2024-01-30T07:13:51;102409.69;;;2.93;78.84
9059;BME280;4564;42.034;25.834;2024-01-30T07:16:17;102408.13;;;2.89;79.03
9059;BME280;4564;42.034;25.834;2024-01-30T07:18:44;102407.44;;;2.86;79.88
9059;BME280;4564;42.034;25.834;2024-01-30T07:21:11;102420.94;;;2.84;79.10
9059;BME280;4564;42.034;25.834;2024-01-30T07:23:37;102419.53;;;2.77;79.27
9059;BME280;4564;42.034;25.834;2024-01-30T07:26:04;102426.44;;;2.81;79.65
9059;BME280;4564;42.034;25.834;2024-01-30T07:28:31;102422.31;;;2.91;79.44
9059;BME280;4564;42.034;25.834;2024-01-30T07:30:59;102418.84;;;2.89;78.62
9059;BME280;4564;42.034;25.834;2024-01-30T07:33:26;102412.63;;;2.89;79.24
9059;BME280;4564;42.034;25.834;2024-01-30T07:35:53;102422.47;;;2.88;78.41
9059;BME280;4564;42.034;25.834;2024-01-30T07:38:19;102418.50;;;2.80;78.00
9059;BME280;4564;42.034;25.834;2024-01-30T07:40:46;102426.72;;;2.92;79.33
9059;BME280;4564;42.034;25.834;2024-01-30T07:43:12;102425.94;;;2.90;78.07
9059;BME280;4564;42.034;25.834;2024-01-30T07:45:39;102431.47;;;2.87;79.20
9059;BME280;4564;42.034;25.834;2024-01-30T07:48:07;102434.94;;;2.89;78.55
9059;BME280;4564;42.034;25.834;2024-01-30T07:50:34;102440.31;;;2.89;79.28
9059;BME280;4564;42.034;25.834;2024-01-30T07:53:01;102438.41;;;2.91;78.48
9059;BME280;4564;42.034;25.834;2024-01-30T07:55:28;102434.59;;;2.95;78.61
9059;BME280;4564;42.034;25.834;2024-01-30T07:57:57;102433.72;;;2.95;78.65
9059;BME280;4564;42.034;25.834;2024-01-30T08:00:24;102448.00;;;2.95;77.93
9059;BME280;4564;42.034;25.834;2024-01-30T08:02:50;102447.56;;;2.87;77.01
9059;BME280;4564;42.034;25.834;2024-01-30T08:05:20;102434.75;;;2.92;77.29
9059;BME280;4564;42.034;25.834;2024-01-30T08:07:47;102448.44;;;3.04;78.13
9059;BME280;4564;42.034;25.834;2024-01-30T08:10:14;102445.34;;;3.11;77.25
9059;BME280;4564;42.034;25.834;2024-01-30T08:12:41;102441.78;;;3.11;76.55
9059;BME280;4564;42.034;25.834;2024-01-30T08:15:08;102441.34;;;3.03;76.84
9059;BME280;4564;42.034;25.834;2024-01-30T08:17:34;102437.56;;;3.07;76.63
9059;BME280;4564;42.034;25.834;2024-01-30T08:20:01;102445.25;;;3.13;76.66
9059;BME280;4564;42.034;25.834;2024-01-30T08:22:31;102441.50;;;3.15;75.97
9059;BME280;4564;42.034;25.834;2024-01-30T08:24:57;102444.28;;;3.14;75.69
9059;BME280;4564;42.034;25.834;2024-01-30T08:27:24;102443.00;;;3.21;76.10
9059;BME280;4564;42.034;25.834;2024-01-30T08:29:50;102444.72;;;3.22;75.34
9059;BME280;4564;42.034;25.834;2024-01-30T08:32:17;102445.50;;;3.24;75.27
9059;BME280;4564;42.034;25.834;2024-01-30T08:34:43;102444.97;;;3.33;75.43
9059;BME280;4564;42.034;25.834;2024-01-30T08:37:10;102431.50;;;3.34;74.30
9059;BME280;4564;42.034;25.834;2024-01-30T08:39:38;102425.25;;;3.34;74.94
9059;BME280;4564;42.034;25.834;2024-01-30T08:42:04;102423.84;;;3.43;74.13
9059;BME280;4564;42.034;25.834;2024-01-30T08:44:31;102428.94;;;3.47;73.94
9059;BME280;4564;42.034;25.834;2024-01-30T08:46:58;102426.56;;;3.57;73.54
9059;BME280;4564;42.034;25.834;2024-01-30T08:49:24;102430.72;;;3.62;72.87
9059;BME280;4564;42.034;25.834;2024-01-30T08:51:51;102426.91;;;3.66;73.29
9059;BME280;4564;42.034;25.834;2024-01-30T08:54:17;102431.31;;;3.67;72.63
9059;BME280;4564;42.034;25.834;2024-01-30T08:56:45;102439.38;;;3.67;71.95
9059;BME280;4564;42.034;25.834;2024-01-30T08:59:12;102425.19;;;3.65;72.76
9059;BME280;4564;42.034;25.834;2024-01-30T09:01:38;102432.53;;;3.62;72.64
9059;BME280;4564;42.034;25.834;2024-01-30T09:04:05;102419.91;;;3.64;73.79
9059;BME280;4564;42.034;25.834;2024-01-30T09:06:32;102423.09;;;3.70;72.77
9059;BME280;4564;42.034;25.834;2024-01-30T09:08:58;102426.38;;;3.75;72.65
9059;BME280;4564;42.034;25.834;2024-01-30T09:11:25;102411.63;;;3.83;72.37
9059;BME280;4564;42.034;25.834;2024-01-30T09:13:53;102402.66;;;3.98;72.86
9059;BME280;4564;42.034;25.834;2024-01-30T09:16:19;102405.84;;;4.04;72.23
9059;BME280;4564;42.034;25.834;2024-01-30T09:18:46;102401.72;;;4.13;71.73
9059;BME280;4564;42.034;25.834;2024-01-30T09:21:12;102401.78;;;4.11;71.07
9059;BME280;4564;42.034;25.834;2024-01-30T09:23:39;102406.78;;;4.17;70.70
9059;BME280;4564;42.034;25.834;2024-01-30T09:26:05;102405.56;;;4.23;71.16
9059;BME280;4564;42.034;25.834;2024-01-30T09:28:32;102402.78;;;4.25;69.40
9059;BME280;4564;42.034;25.834;2024-01-30T09:31:00;102401.91;;;4.24;70.75
9059;BME280;4564;42.034;25.834;2024-01-30T09:33:28;102402.19;;;4.19;70.44
9059;BME280;4564;42.034;25.834;2024-01-30T09:35:54;102395.19;;;4.17;69.76
9059;BME280;4564;42.034;25.834;2024-01-30T09:38:21;102400.25;;;4.21;70.63
9059;BME280;4564;42.034;25.834;2024-01-30T09:40:49;102392.78;;;4.12;69.58
9059;BME280;4564;42.034;25.834;2024-01-30T09:43:20;102394.03;;;4.07;69.34
9059;BME280;4564;42.034;25.834;2024-01-30T09:45:48;102395.56;;;4.11;69.96
9059;BME280;4564;42.034;25.834;2024-01-30T09:48:17;102388.06;;;4.16;69.16
9059;BME280;4564;42.034;25.834;2024-01-30T09:50:44;102389.59;;;4.06;69.86
9059;BME280;4564;42.034;25.834;2024-01-30T09:53:10;102389.13;;;4.13;69.80
9059;BME280;4564;42.034;25.834;2024-01-30T09:55:37;102389.44;;;4.23;69.08
9059;BME280;4564;42.034;25.834;2024-01-30T09:58:04;102386.38;;;4.15;68.96
9059;BME280;4564;42.034;25.834;2024-01-30T10:00:31;102388.06;;;4.16;69.33
9059;BME280;4564;42.034;25.834;2024-01-30T10:02:58;102375.69;;;4.28;70.06
9059;BME280;4564;42.034;25.834;2024-01-30T10:05:26;102382.44;;;4.35;68.44
9059;BME280;4564;42.034;25.834;2024-01-30T10:07:53;102390.97;;;4.27;68.82
9059;BME280;4564;42.034;25.834;2024-01-30T10:10:21;102392.16;;;4.37;69.04
9059;BME280;4564;42.034;25.834;2024-01-30T10:12:48;102383.31;;;4.35;68.59
9059;BME280;4564;42.034;25.834;2024-01-30T10:15:15;102381.28;;;4.39;67.96
9059;BME280;4564;42.034;25.834;2024-01-30T10:17:41;102376.75;;;4.39;68.74
9059;BME280;4564;42.034;25.834;2024-01-30T10:20:08;102374.84;;;4.41;69.13
9059;BME280;4564;42.034;25.834;2024-01-30T10:22:36;102379.66;;;4.36;68.52
9059;BME280;4564;42.034;25.834;2024-01-30T10:25:03;102374.38;;;4.20;68.43
9059;BME280;4564;42.034;25.834;2024-01-30T10:27:30;102376.50;;;4.15;68.72
9059;BME280;4564;42.034;25.834;2024-01-30T10:29:57;102374.66;;;4.30;69.23
9059;BME280;4564;42.034;25.834;2024-01-30T10:32:25;102375.41;;;4.32;69.22
9059;BME280;4564;42.034;25.834;2024-01-30T10:34:51;102375.44;;;4.46;69.66
9059;BME280;4564;42.034;25.834;2024-01-30T10:37:18;102362.72;;;4.48;68.06
9059;BME280;4564;42.034;25.834;2024-01-30T10:39:47;102375.22;;;4.49;68.27
9059;BME280;4564;42.034;25.834;2024-01-30T10:42:15;102370.63;;;4.51;68.01
9059;BME280;4564;42.034;25.834;2024-01-30T10:44:44;102372.28;;;4.26;67.91
9059;BME280;4564;42.034;25.834;2024-01-30T10:47:13;102365.72;;;4.44;68.17
9059;BME280;4564;42.034;25.834;2024-01-30T10:49:42;102367.72;;;4.54;68.31
9059;BME280;4564;42.034;25.834;2024-01-30T10:52:11;102359.28;;;4.60;67.00
9059;BME280;4564;42.034;25.834;2024-01-30T10:54:39;102358.91;;;4.52;68.06
9059;BME280;4564;42.034;25.834;2024-01-30T10:57:08;102363.50;;;4.50;67.53
9059;BME280;4564;42.034;25.834;2024-01-30T10:59:36;102361.69;;;4.51;67.91
9059;BME280;4564;42.034;25.834;2024-01-30T11:02:03;102360.72;;;4.38;68.50
9059;BME280;4564;42.034;25.834;2024-01-30T11:04:35;102361.59;;;4.38;68.27
9059;BME280;4564;42.034;25.834;2024-01-30T11:07:02;102346.53;;;4.36;69.10
9059;BME280;4564;42.034;25.834;2024-01-30T11:09:29;102345.34;;;4.54;69.01
9059;BME280;4564;42.034;25.834;2024-01-30T11:11:56;102347.28;;;4.52;68.51
9059;BME280;4564;42.034;25.834;2024-01-30T11:14:27;102345.78;;;4.48;68.39
9059;BME280;4564;42.034;25.834;2024-01-30T11:16:56;102342.31;;;4.46;68.50
9059;BME280;4564;42.034;25.834;2024-01-30T11:19:23;102346.25;;;4.40;67.22
9059;BME280;4564;42.034;25.834;2024-01-30T11:21:51;102342.78;;;4.24;68.31
9059;BME280;4564;42.034;25.834;2024-01-30T11:24:19;102343.00;;;4.21;69.15
9059;BME280;4564;42.034;25.834;2024-01-30T11:26:47;102340.69;;;4.29;68.70
9059;BME280;4564;42.034;25.834;2024-01-30T11:29:13;102338.94;;;4.28;68.96
9059;BME280;4564;42.034;25.834;2024-01-30T11:31:42;102338.94;;;4.28;69.31
9059;BME280;4564;42.034;25.834;2024-01-30T11:34:17;102330.31;;;4.37;69.26
9059;BME280;4564;42.034;25.834;2024-01-30T11:36:44;102325.91;;;4.36;68.32
9059;BME280;4564;42.034;25.834;2024-01-30T11:39:11;102326.66;;;4.38;68.28
9059;BME280;4564;42.034;25.834;2024-01-30T11:41:38;102316.19;;;4.34;68.27
9059;BME280;4564;42.034;25.834;2024-01-30T11:44:06;102315.94;;;4.24;68.90
9059;BME280;4564;42.034;25.834;2024-01-30T11:46:34;102309.41;;;4.42;69.38
9059;BME280;4564;42.034;25.834;2024-01-30T11:49:02;102309.19;;;4.45;68.17
9059;BME280;4564;42.034;25.834;2024-01-30T11:51:30;102310.34;;;4.41;68.14
9059;BME280;4564;42.034;25.834;2024-01-30T11:53:57;102294.00;;;4.58;68.04
9059;BME280;4564;42.034;25.834;2024-01-30T11:56:24;102289.94;;;4.65;67.79
9059;BME280;4564;42.034;25.834;2024-01-30T11:58:52;102288.78;;;4.70;67.17
9059;BME280;4564;42.034;25.834;2024-01-30T12:01:18;102289.13;;;4.78;66.61
9059;BME280;4564;42.034;25.834;2024-01-30T12:03:49;102290.47;;;4.85;66.45
9059;BME280;4564;42.034;25.834;2024-01-30T12:06:17;102295.00;;;4.97;65.98
9059;BME280;4564;42.034;25.834;2024-01-30T12:08:47;102280.91;;;4.93;65.48
9059;BME280;4564;42.034;25.834;2024-01-30T12:11:20;102277.72;;;5.01;65.35
9059;BME280;4564;42.034;25.834;2024-01-30T12:13:46;102284.53;;;5.19;65.74
9059;BME280;4564;42.034;25.834;2024-01-30T12:16:13;102284.34;;;5.22;66.00
9059;BME280;4564;42.034;25.834;2024-01-30T12:18:40;102276.78;;;5.15;66.40
9059;BME280;4564;42.034;25.834;2024-01-30T12:21:06;102281.94;;;5.05;66.37
9059;BME280;4564;42.034;25.834;2024-01-30T12:23:35;102280.34;;;4.88;65.91
9059;BME280;4564;42.034;25.834;2024-01-30T12:26:02;102281.63;;;4.83;65.76
9059;BME280;4564;42.034;25.834;2024-01-30T12:28:32;102281.06;;;4.78;66.56
9059;BME280;4564;42.034;25.834;2024-01-30T12:31:01;102280.91;;;4.93;66.09
9059;BME280;4564;42.034;25.834;2024-01-30T12:33:28;102278.53;;;4.89;65.99
9059;BME280;4564;42.034;25.834;2024-01-30T12:35:55;102273.97;;;4.77;66.35
9059;BME280;4564;42.034;25.834;2024-01-30T12:38:22;102278.59;;;4.75;65.45
9059;BME280;4564;42.034;25.834;2024-01-30T12:40:52;102271.09;;;4.80;66.13
9059;BME280;4564;42.034;25.834;2024-01-30T12:43:20;102269.38;;;4.64;65.60
9059;BME280;4564;42.034;25.834;2024-01-30T12:45:47;102275.75;;;4.63;66.58
9059;BME280;4564;42.034;25.834;2024-01-30T12:48:13;102265.63;;;4.67;66.86
9059;BME280;4564;42.034;25.834;2024-01-30T12:50:41;102270.41;;;4.76;66.41
9059;BME280;4564;42.034;25.834;2024-01-30T12:53:07;102261.84;;;4.84;65.54
9059;BME280;4564;42.034;25.834;2024-01-30T12:55:34;102269.34;;;4.79;65.95
9059;BME280;4564;42.034;25.834;2024-01-30T12:58:02;102256.66;;;4.81;65.31
9059;BME280;4564;42.034;25.834;2024-01-30T13:00:28;102254.38;;;4.75;65.19
9059;BME280;4564;42.034;25.834;2024-01-30T13:02:55;102255.34;;;4.74;66.08
9059;BME280;4564;42.034;25.834;2024-01-30T13:05:22;102260.47;;;4.64;66.39
9059;BME280;4564;42.034;25.834;2024-01-30T13:07:49;102272.66;;;4.70;65.91
9059;BME280;4564;42.034;25.834;2024-01-30T13:10:15;102265.72;;;4.65;66.30